Time;durP1;ratioP1;P1;durP2;ratioP2;P2;SDS_P1;SDS_P2;PMS_P1;PMS_P2;Temp;Humidity;BMP_temperature;BMP_pressure;BME280_temperature;BME280_humidity;BME280_pressure;Samples;Min_cycle;Max_cycle;Signal;HPM_P1;HPM_P2
2022/01/20 00:00:19;;;;;;;30.08;23.48;;;1.60;99.90;;;;;;4992927;28;20019;-76
2022/01/20 00:02:56;;;;;;;26.45;21.48;;;1.60;99.90;;;;;;5006593;28;20029;-75
2022/01/20 00:06:17;;;;;;;28.40;22.60;;;1.60;99.90;;;;;;4993733;28;20557;-76
2022/01/20 00:27:36;;;;;;;24.63;21.00;;;1.60;99.90;;;;;;5019164;28;20021;-75
2022/01/20 00:37:36;;;;;;;24.63;21.20;;;1.60;99.90;;;;;;5023398;28;20026;-74
2022/01/20 00:40:02;;;;;;;24.17;20.92;;;1.70;99.90;;;;;;5020721;28;20037;-75
2022/01/20 00:42:27;;;;;;;22.27;19.35;;;1.60;99.90;;;;;;4984865;28;20034;-75
2022/01/20 00:44:53;;;;;;;20.55;18.05;;;1.60;99.90;;;;;;5014388;28;20152;-75
2022/01/20 00:47:20;;;;;;;22.10;19.42;;;1.60;99.90;;;;;;5023251;28;20427;-75
2022/01/20 00:49:46;;;;;;;20.05;17.90;;;1.70;99.90;;;;;;5023994;28;20014;-75
2022/01/20 00:52:12;;;;;;;22.02;19.50;;;1.70;99.90;;;;;;5007683;28;20467;-74
2022/01/20 00:54:38;;;;;;;21.48;17.92;;;1.70;99.90;;;;;;5027847;28;20026;-74
2022/01/20 00:57:04;;;;;;;20.88;18.67;;;2.00;99.90;;;;;;5025717;28;20034;-74
2022/01/20 00:59:31;;;;;;;20.95;18.13;;;1.70;99.90;;;;;;5009783;28;20028;-73
2022/01/20 01:02:01;;;;;;;19.70;17.60;;;1.70;99.90;;;;;;5031465;28;20033;-74
2022/01/20 01:04:27;;;;;;;18.70;16.73;;;1.70;99.90;;;;;;5006126;28;20021;-75
2022/01/20 01:07:13;;;;;;;19.63;17.55;;;1.80;99.90;;;;;;5032135;28;20018;-74
2022/01/20 01:09:40;;;;;;;20.55;18.25;;;1.80;99.90;;;;;;4997845;28;20551;-75
2022/01/20 01:12:10;;;;;;;20.85;18.65;;;1.80;99.90;;;;;;5011325;28;20029;-74
2022/01/20 01:14:41;;;;;;;19.80;17.80;;;1.70;99.90;;;;;;5023247;28;20488;-75
2022/01/20 01:24:47;;;;;;;19.58;17.48;;;1.90;99.90;;;;;;5028500;28;20476;-76
2022/01/20 01:27:13;;;;;;;21.42;19.17;;;1.90;99.90;;;;;;5023168;28;20097;-76
2022/01/20 01:32:37;;;;;;;20.58;18.42;;;1.80;99.90;;;;;;5021301;28;20603;-74
2022/01/20 01:35:07;;;;;;;21.23;18.92;;;1.90;99.90;;;;;;5026678;28;20029;-74
2022/01/20 01:40:10;;;;;;;20.08;18.08;;;1.90;99.90;;;;;;5025345;28;20032;-74
2022/01/20 01:42:43;;;;;;;19.77;17.73;;;1.90;99.90;;;;;;5020495;28;20104;-74
2022/01/20 01:45:10;;;;;;;17.95;16.15;;;1.90;99.90;;;;;;4998172;28;20504;-75
2022/01/20 01:47:36;;;;;;;20.38;18.30;;;1.90;99.90;;;;;;5026399;28;20017;-74
2022/01/20 01:50:02;;;;;;;17.95;15.75;;;2.10;99.90;;;;;;5025582;28;20080;-74
2022/01/20 01:52:28;;;;;;;17.25;15.65;;;2.00;99.90;;;;;;5026102;28;20060;-76
2022/01/20 01:54:54;;;;;;;17.90;16.10;;;2.00;99.90;;;;;;5002058;28;20054;-76
2022/01/20 01:57:22;;;;;;;17.85;15.80;;;2.00;99.90;;;;;;5008556;28;20471;-76
2022/01/20 01:59:48;;;;;;;19.17;17.30;;;2.00;99.90;;;;;;5006041;28;20029;-76
2022/01/20 02:02:14;;;;;;;18.45;16.65;;;2.00;99.90;;;;;;5011187;28;20029;-76
2022/01/20 02:04:39;;;;;;;18.70;16.90;;;2.10;99.90;;;;;;5022415;28;20018;-76
2022/01/20 02:07:43;;;;;;;19.10;17.30;;;2.10;99.90;;;;;;5011278;28;20018;-75
2022/01/20 02:18:36;;;;;;;15.85;14.30;;;2.10;99.90;;;;;;5012336;28;20113;-76
2022/01/20 02:21:03;;;;;;;15.77;14.20;;;2.10;99.90;;;;;;5004569;28;20033;-76
2022/01/20 02:23:29;;;;;;;16.13;14.50;;;2.10;99.90;;;;;;5017745;28;20025;-76
2022/01/20 02:25:54;;;;;;;15.52;14.00;;;2.10;99.90;;;;;;4999161;28;20373;-76
2022/01/20 02:28:20;;;;;;;16.00;14.30;;;2.30;99.90;;;;;;5004794;28;20471;-76
2022/01/20 02:30:45;;;;;;;15.90;14.30;;;2.20;99.90;;;;;;5004702;28;20048;-76
2022/01/20 02:33:20;;;;;;;15.75;14.15;;;2.10;99.90;;;;;;5010945;28;20021;-76
2022/01/20 02:35:49;;;;;;;16.55;14.85;;;2.20;99.90;;;;;;5021982;28;20392;-74
2022/01/20 02:38:25;;;;;;;16.70;15.10;;;2.20;99.90;;;;;;5001157;28;20064;-74
2022/01/20 02:46:19;;;;;;;17.15;15.55;;;2.20;99.90;;;;;;5016761;28;20094;-75
2022/01/20 02:48:45;;;;;;;16.52;14.90;;;2.10;99.90;;;;;;5004360;28;20026;-75
2022/01/20 02:51:11;;;;;;;16.23;14.73;;;2.20;99.90;;;;;;5024611;28;20026;-75
2022/01/20 02:53:36;;;;;;;17.25;15.48;;;2.20;99.90;;;;;;5002724;28;20025;-75
2022/01/20 02:56:02;;;;;;;17.50;15.80;;;2.20;99.90;;;;;;5022604;28;20034;-75
2022/01/20 02:58:28;;;;;;;16.50;15.00;;;2.20;99.90;;;;;;5024530;28;20026;-75
2022/01/20 03:00:55;;;;;;;15.98;14.48;;;2.20;99.90;;;;;;5006550;28;20030;-75
2022/01/20 03:03:20;;;;;;;15.80;14.20;;;2.20;99.90;;;;;;5022695;28;20021;-76
2022/01/20 03:05:46;;;;;;;15.13;13.73;;;2.20;99.90;;;;;;5017437;28;20026;-74
2022/01/20 03:08:11;;;;;;;14.30;12.95;;;2.20;99.90;;;;;;5020126;28;20147;-74
2022/01/20 03:10:38;;;;;;;13.52;12.30;;;2.20;99.90;;;;;;5015205;28;20026;-74
2022/01/20 03:13:05;;;;;;;13.82;12.52;;;2.20;99.90;;;;;;5008785;28;20021;-74
2022/01/20 03:15:33;;;;;;;12.70;11.40;;;2.20;99.90;;;;;;4999680;28;20054;-73
2022/01/20 03:17:59;;;;;;;13.05;11.75;;;2.30;99.90;;;;;;4988679;28;20058;-74
2022/01/20 03:20:24;;;;;;;12.90;11.70;;;2.10;99.90;;;;;;5007054;28;20108;-73
2022/01/20 03:22:50;;;;;;;12.95;11.75;;;2.20;99.90;;;;;;5010164;28;20033;-73
2022/01/20 03:25:15;;;;;;;12.20;11.10;;;2.30;99.90;;;;;;4998329;28;20026;-73
2022/01/20 03:27:41;;;;;;;12.98;11.68;;;2.20;99.90;;;;;;4982707;28;20022;-73
2022/01/20 03:30:07;;;;;;;13.85;12.45;;;2.20;99.90;;;;;;5012897;28;20435;-73
2022/01/20 03:32:34;;;;;;;13.98;12.55;;;2.20;99.90;;;;;;4982391;28;20096;-73
2022/01/20 03:35:00;;;;;;;14.05;12.75;;;2.20;99.90;;;;;;5001120;28;20037;-73
2022/01/20 03:37:25;;;;;;;12.85;11.65;;;2.10;99.90;;;;;;5012790;28;20034;-74
2022/01/20 03:39:51;;;;;;;12.63;11.43;;;2.10;99.90;;;;;;4982471;28;20078;-73
2022/01/20 03:42:16;;;;;;;12.75;11.55;;;2.10;99.90;;;;;;5004715;28;20113;-76
2022/01/20 03:44:42;;;;;;;11.90;10.80;;;2.10;99.90;;;;;;5006586;28;20033;-77
2022/01/20 03:47:08;;;;;;;11.55;10.45;;;2.10;99.90;;;;;;4991231;28;20022;-77
2022/01/20 03:49:39;;;;;;;11.93;10.77;;;2.20;99.90;;;;;;5001423;28;20105;-79
2022/01/20 03:52:05;;;;;;;11.45;10.32;;;2.20;99.90;;;;;;4996424;28;20407;-77
2022/01/20 03:54:31;;;;;;;11.30;10.20;;;2.20;99.90;;;;;;5010913;28;20037;-77
2022/01/20 03:56:57;;;;;;;11.00;10.00;;;2.10;99.90;;;;;;5002057;28;20025;-77
2022/01/20 03:59:22;;;;;;;10.48;9.52;;;2.10;99.90;;;;;;4983134;28;20034;-77
2022/01/20 04:01:48;;;;;;;10.55;9.55;;;2.10;99.90;;;;;;4987991;28;20030;-77
2022/01/20 04:04:13;;;;;;;10.77;9.68;;;2.10;99.90;;;;;;5013886;28;20046;-77
2022/01/20 04:06:39;;;;;;;9.85;8.95;;;2.10;99.90;;;;;;4987804;28;20077;-76
2022/01/20 04:09:05;;;;;;;10.20;9.30;;;2.10;99.90;;;;;;4989633;28;20022;-76
2022/01/20 04:11:31;;;;;;;10.82;9.90;;;2.10;99.90;;;;;;4994334;28;20036;-74
2022/01/20 04:13:57;;;;;;;10.82;9.85;;;2.10;99.90;;;;;;5011295;28;20025;-74
2022/01/20 04:16:35;;;;;;;12.10;11.00;;;2.10;99.90;;;;;;5010003;28;20030;-74
2022/01/20 04:19:07;;;;;;;12.05;10.95;;;2.10;99.90;;;;;;4996652;28;20023;-75
2022/01/20 04:21:33;;;;;;;11.07;9.98;;;2.20;99.90;;;;;;5002039;28;20606;-74
2022/01/20 04:24:01;;;;;;;12.45;11.13;;;2.20;99.90;;;;;;5009271;28;20034;-75
2022/01/20 04:26:27;;;;;;;12.70;11.40;;;2.20;99.90;;;;;;4991932;28;20500;-76
2022/01/20 04:28:58;;;;;;;13.10;11.80;;;2.20;99.90;;;;;;4974993;28;20026;-76
2022/01/20 04:31:28;;;;;;;13.68;12.38;;;2.10;99.90;;;;;;4992515;28;20026;-75
2022/01/20 04:33:56;;;;;;;14.55;13.15;;;2.10;99.90;;;;;;4992568;28;20022;-76
2022/01/20 04:36:23;;;;;;;14.23;12.82;;;2.10;99.90;;;;;;4992561;28;20033;-76
2022/01/20 04:38:48;;;;;;;14.35;13.00;;;2.10;99.90;;;;;;5011235;28;20100;-76
2022/01/20 04:41:14;;;;;;;14.48;13.10;;;2.10;99.90;;;;;;4982165;28;20477;-76
2022/01/20 04:43:40;;;;;;;15.15;13.50;;;2.00;99.90;;;;;;5005337;28;20037;-76
2022/01/20 04:49:07;;;;;;;15.48;14.02;;;1.90;99.90;;;;;;5009222;28;20026;-76
2022/01/20 04:57:15;;;;;;;14.48;13.02;;;1.90;99.90;;;;;;4999280;28;20388;-75
2022/01/20 04:59:42;;;;;;;16.98;14.80;;;1.80;99.90;;;;;;5000916;28;20054;-77
2022/01/20 05:02:08;;;;;;;15.38;13.60;;;1.90;99.90;;;;;;4994184;28;20034;-76
2022/01/20 05:04:34;;;;;;;15.65;14.05;;;1.90;99.90;;;;;;4994129;28;20377;-76
2022/01/20 05:07:00;;;;;;;16.40;14.70;;;1.90;99.90;;;;;;5001874;28;20606;-76
2022/01/20 05:09:26;;;;;;;16.88;15.18;;;1.90;99.90;;;;;;4990623;28;20022;-76
2022/01/20 05:12:18;;;;;;;15.90;14.25;;;1.90;99.90;;;;;;5001995;28;20031;-76
2022/01/20 05:14:38;;;;;;;15.20;13.65;;;1.90;99.90;;;;;;4997306;28;20147;-76
2022/01/20 05:17:04;;;;;;;15.27;13.23;;;1.90;99.90;;;;;;4984684;28;20053;-78
2022/01/20 05:19:31;;;;;;;15.18;13.57;;;1.90;99.90;;;;;;5008555;28;20031;-79
2022/01/20 05:21:57;;;;;;;16.23;12.35;;;1.90;99.90;;;;;;5006960;28;20167;-78
2022/01/20 05:24:23;;;;;;;15.55;13.40;;;1.90;99.90;;;;;;4994963;28;20102;-78
2022/01/20 05:26:50;;;;;;;18.58;12.80;;;1.90;99.90;;;;;;5004180;28;20049;-79
2022/01/20 05:29:20;;;;;;;19.63;13.10;;;1.90;99.90;;;;;;4989141;28;20023;-78
2022/01/20 05:31:46;;;;;;;16.55;13.60;;;1.80;99.90;;;;;;5004314;28;20735;-78
2022/01/20 05:34:12;;;;;;;15.70;13.60;;;1.70;99.90;;;;;;4999310;28;20100;-78
2022/01/20 05:36:38;;;;;;;16.33;13.88;;;1.80;99.90;;;;;;4992787;28;20069;-78
2022/01/20 05:39:04;;;;;;;21.00;15.00;;;1.80;99.90;;;;;;5004001;28;20550;-77
2022/01/20 05:41:30;;;;;;;19.73;14.48;;;1.80;99.90;;;;;;5004076;28;20113;-77
2022/01/20 05:43:58;;;;;;;14.70;12.80;;;1.80;99.90;;;;;;5008623;28;20061;-77
2022/01/20 05:46:26;;;;;;;18.35;13.73;;;1.80;99.90;;;;;;5011250;28;20032;-77
2022/01/20 05:48:56;;;;;;;17.08;13.73;;;1.90;99.90;;;;;;4996378;28;20033;-77
2022/01/20 05:51:22;;;;;;;15.45;11.82;;;1.80;99.90;;;;;;5004696;28;20090;-77
2022/01/20 05:53:47;;;;;;;17.63;11.68;;;1.80;99.90;;;;;;4994122;28;20061;-78
2022/01/20 05:56:13;;;;;;;14.52;10.70;;;1.90;99.90;;;;;;5006242;28;20030;-77
2022/01/20 05:58:38;;;;;;;14.05;9.80;;;1.90;99.90;;;;;;4988077;28;20506;-78
2022/01/20 06:01:06;;;;;;;15.45;10.23;;;2.00;99.90;;;;;;5010670;28;20579;-77
2022/01/20 06:03:37;;;;;;;12.02;9.38;;;2.00;99.90;;;;;;5005391;28;20695;-77
2022/01/20 06:06:05;;;;;;;15.73;10.20;;;2.00;99.90;;;;;;5008319;28;20037;-77
2022/01/20 06:08:32;;;;;;;16.30;10.05;;;2.00;99.90;;;;;;4987900;28;20025;-77
2022/01/20 06:10:57;;;;;;;16.73;9.90;;;2.00;99.90;;;;;;5001265;28;20026;-77
2022/01/20 06:13:23;;;;;;;16.33;9.73;;;2.00;99.90;;;;;;4988430;28;20146;-78
2022/01/20 06:15:48;;;;;;;18.92;10.05;;;2.00;99.90;;;;;;4992580;28;20113;-79
2022/01/20 06:18:14;;;;;;;17.67;9.50;;;2.10;99.90;;;;;;5007276;28;20018;-79
2022/01/20 06:20:40;;;;;;;13.80;8.40;;;2.10;99.90;;;;;;4998910;28;20058;-76
2022/01/20 06:23:07;;;;;;;16.75;8.10;;;2.00;99.90;;;;;;4987845;28;20045;-76
2022/01/20 06:25:34;;;;;;;14.90;8.05;;;2.10;99.90;;;;;;4983984;28;20025;-77
2022/01/20 06:27:59;;;;;;;16.77;7.65;;;2.10;99.90;;;;;;4996599;28;20116;-77
2022/01/20 06:30:25;;;;;;;13.13;8.15;;;2.10;99.90;;;;;;5010846;28;20477;-77
2022/01/20 06:32:52;;;;;;;15.82;7.53;;;2.10;99.90;;;;;;5005030;28;20384;-76
2022/01/20 06:35:18;;;;;;;15.48;8.05;;;2.20;99.90;;;;;;4996664;28;20103;-76
2022/01/20 06:37:44;;;;;;;19.88;8.13;;;2.10;99.90;;;;;;5013899;28;20065;-77
2022/01/20 06:40:10;;;;;;;15.57;8.07;;;2.20;99.90;;;;;;5000628;28;20029;-77
2022/01/20 06:42:36;;;;;;;16.10;7.97;;;2.20;99.90;;;;;;5003694;28;20032;-77
2022/01/20 06:45:07;;;;;;;20.15;8.20;;;2.10;99.90;;;;;;4989903;28;20113;-77
2022/01/20 06:47:33;;;;;;;17.05;8.48;;;2.10;99.90;;;;;;5004939;28;20554;-76
2022/01/20 06:50:00;;;;;;;19.77;8.30;;;2.20;99.90;;;;;;4982478;28;20065;-76
2022/01/20 06:52:28;;;;;;;14.80;8.00;;;2.20;99.90;;;;;;4996242;28;20026;-76
2022/01/20 06:54:54;;;;;;;15.65;8.60;;;2.20;99.90;;;;;;4982836;28;20044;-76
2022/01/20 06:57:20;;;;;;;13.43;7.97;;;2.20;99.90;;;;;;4995937;28;20034;-76
2022/01/20 06:59:46;;;;;;;28.30;17.85;;;2.20;99.90;;;;;;5009122;28;20026;-76
2022/01/20 07:02:12;;;;;;;60.08;46.95;;;2.40;99.90;;;;;;4987108;28;20032;-76
2022/01/20 07:04:38;;;;;;;24.35;15.25;;;2.10;99.90;;;;;;4978802;28;20026;-76
2022/01/20 07:07:05;;;;;;;19.65;11.52;;;2.10;99.90;;;;;;4987047;28;20018;-77
2022/01/20 07:09:32;;;;;;;15.00;10.27;;;2.10;99.90;;;;;;5000366;28;20050;-76
2022/01/20 07:11:58;;;;;;;17.75;10.55;;;2.10;99.90;;;;;;5002105;28;20023;-76
2022/01/20 07:14:24;;;;;;;20.77;11.30;;;2.10;99.90;;;;;;4989130;28;20125;-76
2022/01/20 07:16:49;;;;;;;18.02;10.40;;;2.10;99.90;;;;;;5005178;28;20069;-76
2022/01/20 07:19:15;;;;;;;20.65;11.40;;;2.00;99.90;;;;;;4999911;28;20404;-76
2022/01/20 07:21:41;;;;;;;21.40;10.02;;;2.10;99.90;;;;;;5002046;28;20033;-76
2022/01/20 07:24:07;;;;;;;19.08;9.75;;;2.10;99.90;;;;;;5006468;28;20435;-77
2022/01/20 07:26:33;;;;;;;18.20;9.52;;;2.10;99.90;;;;;;4976187;28;20108;-76
2022/01/20 07:28:59;;;;;;;19.08;9.10;;;2.10;99.90;;;;;;5006491;28;20066;-76
2022/01/20 07:31:24;;;;;;;17.15;9.32;;;2.10;99.90;;;;;;5004328;28;20488;-75
2022/01/20 07:33:50;;;;;;;16.90;8.50;;;2.10;99.90;;;;;;4982299;28;20116;-76
2022/01/20 07:36:16;;;;;;;17.67;9.75;;;2.10;99.90;;;;;;5012570;28;20618;-76
2022/01/20 07:38:42;;;;;;;19.80;9.38;;;2.10;99.90;;;;;;5007700;28;20661;-76
2022/01/20 07:41:07;;;;;;;16.70;8.68;;;2.10;99.90;;;;;;5004463;28;20069;-75
2022/01/20 07:43:33;;;;;;;16.10;8.00;;;2.30;99.90;;;;;;4999640;28;20484;-76
2022/01/20 07:45:58;;;;;;;15.63;8.07;;;2.20;99.90;;;;;;5018885;28;20061;-75
2022/01/20 07:48:24;;;;;;;19.50;8.52;;;2.20;99.90;;;;;;5020758;28;20029;-76
2022/01/20 07:50:50;;;;;;;22.98;9.30;;;2.20;99.90;;;;;;5007899;28;20114;-75
2022/01/20 07:53:15;;;;;;;16.75;7.80;;;2.30;99.90;;;;;;5020590;28;20473;-76
2022/01/20 07:55:41;;;;;;;16.13;8.23;;;2.40;99.90;;;;;;5023668;28;20427;-75
2022/01/20 07:58:07;;;;;;;19.73;9.98;;;2.30;99.90;;;;;;5001590;28;20026;-76
2022/01/20 08:00:33;;;;;;;20.23;8.55;;;2.30;99.90;;;;;;4983919;28;20101;-76
2022/01/20 08:02:58;;;;;;;17.17;8.57;;;2.20;99.90;;;;;;5005898;28;20030;-76
2022/01/20 08:05:24;;;;;;;20.30;8.98;;;2.30;99.90;;;;;;4986537;28;20053;-76
2022/01/20 08:07:49;;;;;;;15.02;8.55;;;2.30;99.90;;;;;;5007957;28;20497;-76
2022/01/20 08:10:15;;;;;;;20.73;8.43;;;2.20;99.90;;;;;;4984333;28;20062;-76
2022/01/20 08:12:43;;;;;;;19.52;9.10;;;2.20;99.90;;;;;;5008529;28;20030;-76
2022/01/20 08:15:09;;;;;;;17.30;8.80;;;2.30;99.90;;;;;;5003365;28;20022;-76
2022/01/20 08:17:36;;;;;;;16.33;8.60;;;2.30;99.90;;;;;;5006132;28;20022;-76
2022/01/20 08:20:03;;;;;;;21.50;8.95;;;2.40;99.90;;;;;;5003197;28;20084;-75
2022/01/20 08:22:31;;;;;;;20.55;8.95;;;2.40;99.90;;;;;;4976941;28;20027;-76
2022/01/20 08:24:56;;;;;;;18.13;8.05;;;2.40;99.90;;;;;;5003857;28;20113;-75
2022/01/20 08:27:22;;;;;;;17.75;8.77;;;2.50;99.90;;;;;;5019844;28;20033;-75
2022/01/20 08:29:47;;;;;;;21.60;8.18;;;2.50;99.90;;;;;;5012254;28;20022;-76
2022/01/20 08:32:13;;;;;;;18.58;8.20;;;2.50;99.90;;;;;;4994175;28;20026;-75
2022/01/20 08:34:38;;;;;;;16.65;7.93;;;2.50;99.90;;;;;;5012018;28;20451;-76
2022/01/20 08:37:05;;;;;;;20.77;9.27;;;2.50;99.90;;;;;;5002207;28;20034;-76
2022/01/20 08:41:57;;;;;;;23.85;8.25;;;2.40;99.90;;;;;;5011863;28;20105;-76
2022/01/20 08:44:24;;;;;;;18.50;7.82;;;2.60;99.90;;;;;;5011996;28;20018;-76
2022/01/20 08:46:50;;;;;;;11.68;7.28;;;2.60;99.90;;;;;;4997210;28;20032;-76
2022/01/20 08:49:16;;;;;;;16.60;7.90;;;2.70;99.90;;;;;;5011174;28;20120;-76
2022/01/20 08:51:41;;;;;;;16.02;7.18;;;2.80;99.90;;;;;;5015649;28;20459;-76
2022/01/20 08:54:07;;;;;;;20.05;8.55;;;2.80;99.90;;;;;;5002855;28;20025;-76
2022/01/20 08:56:36;;;;;;;12.43;6.57;;;2.80;99.90;;;;;;5011783;28;20029;-77
2022/01/20 08:59:05;;;;;;;14.77;7.10;;;3.00;99.90;;;;;;5011487;28;20026;-76
2022/01/20 09:01:35;;;;;;;13.75;6.47;;;2.90;99.90;;;;;;4994000;28;20022;-77
2022/01/20 09:04:01;;;;;;;16.95;7.55;;;3.00;99.90;;;;;;5011450;28;20027;-76
2022/01/20 09:06:27;;;;;;;14.00;6.53;;;2.90;99.90;;;;;;5009748;28;20072;-76
2022/01/20 09:08:52;;;;;;;14.77;7.28;;;2.80;99.90;;;;;;4996802;28;20454;-77
2022/01/20 09:11:22;;;;;;;13.32;6.82;;;2.90;99.90;;;;;;5003730;28;20022;-77
2022/01/20 09:16:34;;;;;;;17.27;6.57;;;3.00;99.90;;;;;;5010115;28;20132;-76
2022/01/20 09:19:00;;;;;;;13.15;6.65;;;2.90;99.90;;;;;;4998558;28;20076;-76
2022/01/20 09:21:27;;;;;;;13.10;6.53;;;2.90;99.90;;;;;;5020234;28;20415;-76
2022/01/20 09:23:53;;;;;;;16.67;7.55;;;2.90;99.90;;;;;;5015239;28;20025;-76
2022/01/20 09:26:18;;;;;;;14.95;7.93;;;2.90;99.90;;;;;;5015311;28;20026;-76
2022/01/20 09:28:44;;;;;;;12.40;6.20;;;2.90;99.90;;;;;;5018206;28;20151;-76
2022/01/20 09:31:10;;;;;;;14.20;6.90;;;2.90;99.90;;;;;;5023933;28;20034;-76
2022/01/20 09:33:36;;;;;;;14.43;6.93;;;3.00;99.90;;;;;;4998840;28;20033;-78
2022/01/20 09:36:12;;;;;;;20.25;6.18;;;2.90;99.90;;;;;;5024580;28;20034;-78
2022/01/20 09:38:38;;;;;;;8.65;2.90;;;2.70;99.90;;;;;;5010813;28;20117;-77
2022/01/20 09:41:05;;;;;;;8.07;2.65;;;0.90;99.90;;;;;;4995442;28;20117;-77
2022/01/20 09:43:31;;;;;;;6.70;2.58;;;0.40;99.90;;;;;;5010830;28;20029;-77
2022/01/20 09:45:57;;;;;;;7.32;2.83;;;0.50;99.90;;;;;;5016760;28;20388;-77
2022/01/20 09:48:24;;;;;;;6.68;2.85;;;0.50;99.90;;;;;;4999263;28;20076;-75
2022/01/20 09:50:51;;;;;;;9.10;3.30;;;0.70;99.90;;;;;;5003617;28;20026;-76
2022/01/20 09:53:16;;;;;;;8.90;4.50;;;0.70;99.90;;;;;;5001345;28;20030;-76
2022/01/20 09:55:42;;;;;;;8.18;4.60;;;0.70;99.90;;;;;;5014694;28;20026;-77
2022/01/20 09:58:10;;;;;;;8.25;3.70;;;0.70;99.90;;;;;;4999820;28;20025;-76
2022/01/20 10:00:36;;;;;;;6.07;2.38;;;0.70;99.90;;;;;;5014441;28;20026;-76
2022/01/20 10:03:12;;;;;;;7.50;2.97;;;0.70;99.90;;;;;;5014423;28;20026;-77
2022/01/20 10:05:44;;;;;;;7.75;2.60;;;0.80;99.90;;;;;;4998574;28;20120;-77
2022/01/20 10:08:22;;;;;;;5.55;2.35;;;0.80;99.90;;;;;;4999804;28;20120;-77
2022/01/20 10:10:49;;;;;;;9.13;2.92;;;0.90;99.90;;;;;;5014200;28;20024;-77
2022/01/20 10:13:17;;;;;;;7.70;2.40;;;0.90;99.90;;;;;;5014459;28;20021;-77
2022/01/20 10:15:58;;;;;;;6.32;2.38;;;0.90;99.90;;;;;;5014465;28;20050;-75
2022/01/20 10:18:24;;;;;;;7.25;2.30;;;1.00;99.90;;;;;;5000678;28;20024;-75
2022/01/20 10:21:02;;;;;;;8.48;2.70;;;1.10;99.90;;;;;;5018035;28;20146;-75
2022/01/20 10:23:46;;;;;;;7.55;2.35;;;1.10;99.90;;;;;;4989232;28;20025;-75
2022/01/20 10:26:18;;;;;;;8.45;3.00;;;1.10;99.90;;;;;;5013508;28;20357;-75
2022/01/20 10:29:08;;;;;;;7.97;3.13;;;1.20;99.90;;;;;;5014129;28;20427;-75
2022/01/20 10:31:46;;;;;;;9.40;2.83;;;1.30;99.90;;;;;;4988871;28;20018;-76
2022/01/20 10:34:35;;;;;;;9.70;3.50;;;1.40;99.90;;;;;;5013602;28;20491;-75
2022/01/20 10:37:13;;;;;;;7.20;2.90;;;1.50;99.90;;;;;;5013663;28;20056;-77
2022/01/20 10:39:45;;;;;;;11.52;2.83;;;1.60;99.90;;;;;;4998458;28;20442;-77
2022/01/20 10:42:20;;;;;;;7.47;2.65;;;1.50;99.90;;;;;;5012882;28;20025;-77
2022/01/20 10:44:57;;;;;;;8.07;2.50;;;1.50;99.90;;;;;;4996203;28;20013;-77
2022/01/20 10:47:31;;;;;;;9.20;3.05;;;1.60;99.90;;;;;;4988711;28;20049;-77
2022/01/20 10:50:09;;;;;;;6.47;2.45;;;1.60;99.90;;;;;;5013677;28;20100;-77
2022/01/20 10:52:36;;;;;;;8.40;2.78;;;1.50;99.90;;;;;;5013613;28;20075;-77
2022/01/20 10:55:03;;;;;;;6.90;2.78;;;1.50;99.90;;;;;;5013622;28;20092;-77
2022/01/20 10:57:31;;;;;;;7.43;2.80;;;1.80;99.90;;;;;;4996623;28;20607;-77
2022/01/20 11:00:05;;;;;;;8.45;3.15;;;1.90;99.90;;;;;;5013477;28;20030;-77
2022/01/20 11:02:31;;;;;;;10.15;3.17;;;2.00;99.90;;;;;;5009607;28;20388;-77
2022/01/20 11:04:57;;;;;;;7.53;2.97;;;2.20;99.90;;;;;;5002802;28;20026;-77
2022/01/20 11:07:24;;;;;;;9.93;3.00;;;2.20;99.90;;;;;;5011603;28;20440;-77
2022/01/20 11:09:56;;;;;;;6.65;2.63;;;2.20;99.90;;;;;;5013800;28;20029;-77
2022/01/20 11:12:22;;;;;;;10.60;3.00;;;2.20;99.90;;;;;;5004170;28;20025;-77
2022/01/20 11:14:52;;;;;;;8.90;3.05;;;2.40;99.90;;;;;;5017707;28;20029;-77
2022/01/20 11:17:25;;;;;;;12.18;3.20;;;2.20;99.90;;;;;;5012124;28;20037;-77
2022/01/20 11:19:51;;;;;;;11.30;3.67;;;2.20;99.90;;;;;;5013970;28;20033;-77
2022/01/20 11:22:19;;;;;;;10.32;3.15;;;2.30;99.90;;;;;;5003831;28;20375;-78
2022/01/20 11:24:57;;;;;;;7.68;2.53;;;2.40;99.90;;;;;;5011436;28;20022;-76
2022/01/20 11:27:40;;;;;;;8.70;3.13;;;2.50;99.90;;;;;;5013700;28;20022;-76
2022/01/20 11:30:29;;;;;;;9.75;2.95;;;2.60;99.90;;;;;;5013704;28;20018;-76
2022/01/20 11:33:12;;;;;;;10.73;3.42;;;2.70;99.90;;;;;;5003421;28;20038;-76
2022/01/20 11:35:46;;;;;;;10.80;3.28;;;3.00;99.90;;;;;;5020562;28;20072;-76
2022/01/20 11:38:17;;;;;;;9.48;2.88;;;2.80;99.90;;;;;;5016364;28;20435;-76
2022/01/20 11:40:54;;;;;;;8.75;2.70;;;2.60;99.90;;;;;;5018190;28;20480;-77
2022/01/20 11:43:36;;;;;;;8.30;3.60;;;2.40;99.90;;;;;;5007273;28;20027;-76
2022/01/20 11:46:10;;;;;;;9.73;3.17;;;2.40;99.90;;;;;;5008271;28;20480;-76
2022/01/20 11:48:36;;;;;;;11.50;3.97;;;2.40;99.90;;;;;;5007766;28;20101;-77
2022/01/20 11:51:09;;;;;;;8.70;3.63;;;2.40;99.90;;;;;;5008801;28;20444;-77
2022/01/20 11:53:42;;;;;;;8.70;3.30;;;2.40;99.90;;;;;;5006954;28;20014;-76
2022/01/20 11:56:09;;;;;;;12.13;3.88;;;2.40;99.90;;;;;;5002807;28;20113;-76
2022/01/20 11:58:35;;;;;;;8.18;3.00;;;2.40;99.90;;;;;;5012303;28;20045;-76
2022/01/20 12:01:07;;;;;;;7.60;2.72;;;2.40;99.90;;;;;;5017906;28;20439;-76
2022/01/20 12:03:35;;;;;;;14.07;4.18;;;2.20;99.90;;;;;;5012369;28;20499;-76
2022/01/20 12:06:04;;;;;;;11.65;3.42;;;2.20;99.90;;;;;;5018672;28;20036;-76
2022/01/20 12:08:30;;;;;;;7.05;3.05;;;2.30;99.90;;;;;;5006557;28;20018;-76
2022/01/20 12:11:04;;;;;;;11.15;3.25;;;2.40;99.90;;;;;;5019196;28;20030;-77
2022/01/20 12:13:30;;;;;;;10.77;3.40;;;2.60;99.90;;;;;;5012294;28;20153;-76
2022/01/20 12:16:00;;;;;;;9.73;2.75;;;2.70;99.90;;;;;;5012053;28;20014;-76
2022/01/20 12:18:27;;;;;;;9.02;2.72;;;2.80;99.90;;;;;;4998558;28;20368;-76
2022/01/20 12:20:53;;;;;;;11.30;3.38;;;2.50;99.90;;;;;;5011555;28;20112;-76
2022/01/20 12:23:19;;;;;;;10.85;3.20;;;2.60;99.90;;;;;;5011810;28;20480;-77
2022/01/20 12:25:46;;;;;;;8.73;3.35;;;2.70;99.90;;;;;;5014261;28;20034;-76
2022/01/20 12:28:14;;;;;;;8.80;2.80;;;3.10;99.90;;;;;;4994535;28;20022;-76
2022/01/20 12:30:47;;;;;;;11.77;3.85;;;3.20;99.90;;;;;;5011744;28;20046;-77
2022/01/20 12:33:15;;;;;;;10.70;2.75;;;3.30;99.90;;;;;;5002073;28;20106;-76
2022/01/20 12:35:48;;;;;;;9.27;2.80;;;3.10;99.90;;;;;;5010181;28;20092;-76
2022/01/20 12:38:32;;;;;;;8.65;2.97;;;2.90;99.90;;;;;;5006401;28;20031;-75
2022/01/20 12:41:03;;;;;;;6.68;2.40;;;2.80;99.90;;;;;;5009958;28;20026;-75
2022/01/20 12:43:41;;;;;;;9.02;2.53;;;2.70;99.90;;;;;;5008681;28;20018;-75
2022/01/20 12:46:09;;;;;;;5.93;2.58;;;2.70;99.90;;;;;;5010904;28;20026;-75
2022/01/20 12:48:34;;;;;;;8.57;2.00;;;2.80;99.90;;;;;;5015861;28;20499;-76
2022/01/20 12:51:07;;;;;;;6.35;2.22;;;2.60;99.90;;;;;;5003362;28;20050;-76
2022/01/20 12:53:37;;;;;;;4.97;1.88;;;2.30;99.90;;;;;;5004134;28;20024;-75
2022/01/20 12:56:04;;;;;;;8.02;2.72;;;2.20;99.90;;;;;;5008097;28;20061;-76
2022/01/20 12:58:30;;;;;;;6.55;2.47;;;2.20;99.90;;;;;;5020217;28;20018;-75
2022/01/20 13:01:04;;;;;;;5.43;2.20;;;2.30;99.90;;;;;;5011089;28;20037;-75
2022/01/20 13:03:41;;;;;;;7.38;1.95;;;2.40;99.90;;;;;;5011538;28;20026;-75
2022/01/20 13:06:11;;;;;;;5.28;2.25;;;2.50;99.90;;;;;;5015573;28;20042;-75
2022/01/20 13:08:40;;;;;;;6.75;2.13;;;2.20;99.90;;;;;;5016376;28;20515;-75
2022/01/20 13:11:13;;;;;;;7.32;2.30;;;2.10;99.90;;;;;;5010770;28;20505;-75
2022/01/20 13:13:39;;;;;;;7.38;2.47;;;2.10;99.90;;;;;;5017236;28;20128;-75
2022/01/20 13:16:15;;;;;;;4.78;2.17;;;2.10;99.90;;;;;;5009412;28;20599;-77
2022/01/20 13:18:56;;;;;;;;;;;1.90;99.90;;;;;;5027492;28;20608;-77
2022/01/20 13:21:38;;;;;;;8.82;2.35;;;1.90;99.90;;;;;;4998527;28;19959;-78
2022/01/20 13:24:06;;;;;;;4.88;2.00;;;1.90;99.90;;;;;;5013135;28;20021;-77
2022/01/20 13:26:45;;;;;;;7.13;2.70;;;1.90;99.90;;;;;;5006764;28;20021;-77
2022/01/20 13:29:10;;;;;;;11.40;5.07;;;1.90;99.90;;;;;;4996993;28;20030;-76
2022/01/20 13:31:36;;;;;;;9.10;2.97;;;2.00;99.90;;;;;;4993726;28;20029;-75
2022/01/20 13:34:17;;;;;;;9.27;3.00;;;2.10;99.90;;;;;;5012544;28;20498;-76
2022/01/20 13:36:47;;;;;;;9.32;2.22;;;2.10;99.90;;;;;;5011067;28;20025;-76
2022/01/20 13:39:14;;;;;;;7.18;2.90;;;2.20;99.90;;;;;;4986315;28;20107;-76
2022/01/20 13:41:42;;;;;;;7.13;2.67;;;2.30;99.90;;;;;;5000617;28;20033;-75
2022/01/20 13:47:09;;;;;;;11.55;2.70;;;2.10;99.90;;;;;;5011240;28;20037;-76
2022/01/20 13:49:46;;;;;;;10.02;2.53;;;2.20;99.90;;;;;;4996240;28;20025;-75
2022/01/20 13:52:14;;;;;;;5.60;2.33;;;2.10;99.90;;;;;;5017134;28;20037;-75
2022/01/20 13:54:43;;;;;;;9.30;3.63;;;2.10;99.90;;;;;;5011205;28;20083;-76
2022/01/20 13:57:09;;;;;;;9.85;3.28;;;2.20;99.90;;;;;;5010861;28;20371;-75
2022/01/20 13:59:45;;;;;;;6.15;2.28;;;2.20;99.90;;;;;;5014021;28;20476;-75
2022/01/20 14:02:11;;;;;;;6.32;2.47;;;2.10;99.90;;;;;;5014163;28;20038;-75